UMMSEPMO

Guest
Details From UMMS - Minsk Velikiydvor
To EPMO - MODLIN
Flight Number -
Tags generated
Created
Modified
Stats Distance 282 nm / 522 km
Max Altitude 24,500 ft / 7,468 m
Waypoints 6
Social Downloads 5
Likes 0
Share VATSIM

Download

Looking for another format? Having issues loading an existing format? Contact us
Advertisement - Login to hide

Notes

Basic altitude profile: - Ascent Rate: 2500ft/min - Ascent Speed: 250kts - Cruise Altitude: 18000ft - Cruise Speed: 420kts - Descent Rate: 1500ft/min - Descent Speed: 250kts Options: - Use NATs: yes - Use PACOTS: yes - Use low airways: yes - Use high airways: yes

Route

UMMS MNS G102 KI T711 BULEP EPMO

ID Type Via Altitude Latitude Longitude Leg Dist Tot Dist Heading (true) Name
O UMMS APT - 0 ft / 0 m 53.88255˚ 28.03079˚ - 0 nm - Minsk Velikiydvor
MNS VOR - 100 ft / 30 m 53.88500˚ 28.02167˚ 0 nm 0 nm 295° / 295° MINSK-2 VOR-DME
KI NDB G102 (AWY-LO) 16,400 ft / 4,999 m 53.88333˚ 26.73333˚ 45 nm 45 nm 270° / 269° IVENETS NDB
GORAT FIX T711 (AWY-LO) 18,000 ft / 5,486 m 53.17806˚ 23.89417˚ 109 nm 155 nm 248° / 246° -
BULEP FIX T711 (AWY-LO) 24,500 ft / 7,468 m 52.77111˚ 22.41889˚ 58 nm 214 nm 246° / 245° -
O EPMO APT - 0 ft / 0 m 52.45111˚ 20.65178˚ 67 nm 281 nm 254° / 253° MODLIN

Altitude Profile

Advertisement - Login to hide

Weather


0- 5 10 15 20 25 30 35+ Temperature / ° C

Clouds and Precipitation
Forecast for 2018-05-23 12:00 UTC. Updated 6 hours ago

Ground ~20,000 ft ~40,000 ft Winds

UMMS

Details ICAO UMMS (MSQ)
Name Minsk Velikiydvor
Region Belarus and Russia (Kaliningrad Oblast)
Timezone Europe/Minsk (UTC+3.0)
Stats Elevation 669 ft / 204 m (AMSL)
Location 53.882550° 28.030786°
Runways 1
Magnetic Variation 8.066° E

METAR

UMMS 231700Z 34005MPS CAVOK 19/10 Q1021 R31/D NOSIG

Decode

TAF

TAF UMMS 231100Z 2311/2412 22005MPS 9999 BKN020 TEMPO 2311/2320 26010G15MPS 1200 TSRA SCT006 BKN015CB FM232000 29005MPS 5000 BR SCT005 TEMPO 2320/2406 0600 FG VV003 BECMG 2406/2407 01005G10MPS 9999 NSW BKN020 TEMPO 2407/2412 03009G14MPS 2000 TSRA SCT006 BKN015CB

Decode

Departure Runways

ID Width Length Bearing (true) Bearing (mag) Surface Threshold Offset Overrun Length
13 197 ft / 60 m 11,938 ft / 3,639 m 138.85° 130.78° Concrete 0 ft / 0 m 0 ft / 0 m
31 197 ft / 60 m 11,938 ft / 3,639 m 318.88° 310.81° Concrete 0 ft / 0 m 0 ft / 0 m

EPMO

Details ICAO EPMO (WMI)
Name MODLIN
Region Poland
Timezone Europe/Warsaw (UTC+2.0)
Stats Elevation 341 ft / 104 m (AMSL)
Location 52.451110° 20.651778°
Runways 1
Magnetic Variation 5.823° E

METAR

EPMO 231700Z 03008KT CAVOK 21/08 Q1022

Decode

TAF

TAF EPMO 231130Z 2312/2412 06008KT CAVOK

Decode

Destination Runways

ID Width Length Bearing (true) Bearing (mag) Surface Threshold Offset Overrun Length
08 197 ft / 60 m 8,188 ft / 2,496 m 81.96° 76.14° Asphalt 0 ft / 0 m 0 ft / 0 m
26 197 ft / 60 m 8,188 ft / 2,496 m 261.99° 256.17° Asphalt 0 ft / 0 m 0 ft / 0 m

Popular Alternatives